Time;durP1;ratioP1;P1;durP2;ratioP2;P2;SDS_P1;SDS_P2;PMS_P1;PMS_P2;Temp;Humidity;BMP_temperature;BMP_pressure;BME280_temperature;BME280_humidity;BME280_pressure;Samples;Min_cycle;Max_cycle;Signal;HPM_P1;HPM_P2
2023/04/03 00:01:04;;;;;;;3.88;1.52;;;;;;;;;;5068687;28;20403;-80
2023/04/03 00:03:30;;;;;;;2.88;1.30;;;;;;;;;;5090841;28;20495;-80
2023/04/03 00:05:56;;;;;;;2.63;1.30;;;;;;;;;;5074085;28;20963;-79
2023/04/03 00:08:22;;;;;;;3.05;1.27;;;;;;;;;;5075045;28;20593;-81
2023/04/03 00:10:49;;;;;;;3.22;1.20;;;;;;;;;;5074375;28;20468;-80
2023/04/03 00:13:15;;;;;;;3.08;1.48;;;;;;;;;;5057325;28;20442;-81
2023/04/03 00:15:41;;;;;;;2.80;1.20;;;;;;;;;;5085489;28;20429;-81
2023/04/03 00:18:07;;;;;;;3.30;1.30;;;;;;;;;;5045603;28;20423;-81
2023/04/03 00:20:34;;;;;;;3.85;1.20;;;;;;;;;;5054652;28;20403;-80
2023/04/03 00:23:00;;;;;;;3.42;1.20;;;;;;;;;;5080343;28;20473;-81
2023/04/03 00:25:26;;;;;;;2.70;1.20;;;;;;;;;;5057541;28;20453;-81
2023/04/03 00:27:52;;;;;;;2.42;1.10;;;;;;;;;;5073087;28;20816;-81
2023/04/03 00:30:20;;;;;;;3.53;1.10;;;;;;;;;;5083520;28;20421;-79
2023/04/03 00:32:47;;;;;;;2.28;1.10;;;;;;;;;;5072200;28;20441;-81
2023/04/03 00:35:15;;;;;;;3.03;1.20;;;;;;;;;;5053961;28;20412;-81
2023/04/03 00:37:42;;;;;;;3.23;1.10;;;;;;;;;;5041745;28;20419;-81
2023/04/03 00:40:09;;;;;;;2.90;1.20;;;;;;;;;;5069030;28;20431;-80
2023/04/03 00:42:36;;;;;;;4.63;1.30;;;;;;;;;;5072318;28;20449;-81
2023/04/03 00:45:02;;;;;;;3.80;1.20;;;;;;;;;;5090812;28;20421;-80
2023/04/03 00:47:30;;;;;;;2.53;1.10;;;;;;;;;;5072428;28;20413;-80
2023/04/03 00:49:56;;;;;;;3.10;1.20;;;;;;;;;;5073487;28;20793;-81
2023/04/03 00:52:24;;;;;;;2.40;1.03;;;;;;;;;;5073418;28;20915;-80
2023/04/03 00:54:52;;;;;;;2.63;1.10;;;;;;;;;;5105630;28;20491;-79
2023/04/03 00:57:19;;;;;;;5.20;1.40;;;;;;;;;;5073855;28;20498;-80
2023/04/03 00:59:47;;;;;;;2.65;1.20;;;;;;;;;;5087825;28;20897;-80
2023/04/03 01:02:13;;;;;;;2.53;1.20;;;;;;;;;;5069719;28;20406;-81
2023/04/03 01:04:41;;;;;;;3.42;1.25;;;;;;;;;;5040578;28;20398;-80
2023/04/03 01:07:12;;;;;;;3.25;1.20;;;;;;;;;;5071159;28;20437;-80
2023/04/03 01:09:39;;;;;;;2.50;1.27;;;;;;;;;;5053941;28;20916;-81
2023/04/03 01:12:23;;;;;;;3.70;1.35;;;;;;;;;;5066037;28;20930;-81
2023/04/03 01:14:51;;;;;;;3.85;1.58;;;;;;;;;;5072163;28;20414;-81
2023/04/03 01:17:31;;;;;;;3.33;1.30;;;;;;;;;;5064421;28;20926;-81
2023/04/03 01:20:13;;;;;;;3.65;1.30;;;;;;;;;;5070421;28;20905;-81
2023/04/03 01:22:45;;;;;;;3.25;1.30;;;;;;;;;;5098520;28;20821;-81
2023/04/03 01:25:11;;;;;;;3.35;1.30;;;;;;;;;;5072298;28;20430;-80
2023/04/03 01:27:37;;;;;;;3.42;1.50;;;;;;;;;;5038271;28;20412;-79
2023/04/03 01:30:03;;;;;;;2.67;1.30;;;;;;;;;;5068599;28;20423;-79
2023/04/03 01:32:29;;;;;;;2.63;1.25;;;;;;;;;;5038930;28;20432;-80
2023/04/03 01:34:55;;;;;;;3.67;1.45;;;;;;;;;;5067749;28;20455;-80
2023/04/03 01:37:21;;;;;;;2.45;1.30;;;;;;;;;;5071477;28;20410;-80
2023/04/03 01:39:47;;;;;;;5.00;1.73;;;;;;;;;;5057078;28;20489;-80
2023/04/03 01:42:13;;;;;;;3.72;1.58;;;;;;;;;;5080414;28;20416;-79
2023/04/03 01:44:39;;;;;;;3.95;1.50;;;;;;;;;;5078606;28;20413;-79
2023/04/03 01:47:07;;;;;;;5.07;1.58;;;;;;;;;;5069723;28;20502;-80
2023/04/03 01:49:33;;;;;;;3.47;1.38;;;;;;;;;;5068614;28;20479;-80
2023/04/03 01:51:59;;;;;;;3.85;1.60;;;;;;;;;;5067988;28;20413;-80
2023/04/03 01:54:25;;;;;;;5.15;1.60;;;;;;;;;;5071602;28;20430;-80
2023/04/03 01:56:51;;;;;;;5.20;1.92;;;;;;;;;;5074791;28;20425;-80
2023/04/03 01:59:19;;;;;;;3.80;1.60;;;;;;;;;;5072320;28;20790;-81
2023/04/03 02:01:45;;;;;;;3.65;1.40;;;;;;;;;;5072355;28;20422;-79
2023/04/03 02:04:12;;;;;;;4.28;1.60;;;;;;;;;;5094605;28;20429;-79
2023/04/03 02:06:38;;;;;;;4.32;1.52;;;;;;;;;;5071523;28;20426;-78
2023/04/03 02:09:04;;;;;;;5.07;1.53;;;;;;;;;;5057793;28;20573;-77
2023/04/03 02:11:31;;;;;;;6.97;1.70;;;;;;;;;;5073138;28;20770;-78
2023/04/03 02:13:57;;;;;;;4.97;1.60;;;;;;;;;;5063616;28;20423;-78
2023/04/03 02:16:23;;;;;;;4.63;1.70;;;;;;;;;;5072884;28;20431;-78
2023/04/03 02:18:49;;;;;;;4.00;1.60;;;;;;;;;;5088275;28;20501;-78
2023/04/03 02:21:15;;;;;;;3.43;1.50;;;;;;;;;;5090374;28;20872;-78
2023/04/03 02:23:41;;;;;;;5.00;1.60;;;;;;;;;;5074170;28;20403;-78
2023/04/03 02:26:09;;;;;;;4.60;1.70;;;;;;;;;;5072020;28;20945;-79
2023/04/03 02:28:35;;;;;;;4.75;1.58;;;;;;;;;;5091980;28;20410;-80
2023/04/03 02:31:02;;;;;;;5.50;1.88;;;;;;;;;;5074493;28;20418;-81
2023/04/03 02:33:28;;;;;;;5.57;1.90;;;;;;;;;;5052673;28;20421;-79
2023/04/03 02:35:57;;;;;;;3.95;1.52;;;;;;;;;;5075651;28;20788;-81
2023/04/03 02:38:23;;;;;;;4.18;1.80;;;;;;;;;;5074543;28;20924;-80
2023/04/03 02:40:49;;;;;;;5.32;1.85;;;;;;;;;;5077054;28;20427;-81
2023/04/03 02:43:15;;;;;;;4.28;1.70;;;;;;;;;;5085755;28;20508;-78
2023/04/03 02:45:42;;;;;;;4.57;1.85;;;;;;;;;;5087243;28;20492;-79
2023/04/03 02:48:08;;;;;;;4.40;1.50;;;;;;;;;;5109258;28;20425;-79
2023/04/03 02:50:34;;;;;;;8.65;2.00;;;;;;;;;;5091913;28;20410;-79
2023/04/03 02:53:00;;;;;;;3.97;1.73;;;;;;;;;;5101886;28;20474;-78
2023/04/03 02:55:26;;;;;;;4.63;1.80;;;;;;;;;;5059445;28;20481;-78
2023/04/03 02:57:52;;;;;;;4.70;1.80;;;;;;;;;;5038857;28;20418;-77
2023/04/03 03:00:18;;;;;;;5.50;1.83;;;;;;;;;;5054562;28;20820;-79
2023/04/03 03:02:44;;;;;;;4.35;1.88;;;;;;;;;;5102198;28;20413;-80
2023/04/03 03:05:10;;;;;;;5.57;2.10;;;;;;;;;;5092737;28;20435;-79
2023/04/03 03:07:36;;;;;;;4.65;1.83;;;;;;;;;;5058675;28;20398;-79
2023/04/03 03:10:02;;;;;;;3.55;1.90;;;;;;;;;;5058492;28;20401;-79
2023/04/03 03:12:29;;;;;;;3.97;1.92;;;;;;;;;;5072364;28;20917;-79
2023/04/03 03:14:55;;;;;;;6.32;1.92;;;;;;;;;;5074054;28;20472;-79
2023/04/03 03:17:21;;;;;;;4.18;1.63;;;;;;;;;;5092448;28;20394;-77
2023/04/03 03:19:47;;;;;;;5.22;2.13;;;;;;;;;;5075534;28;20947;-78
2023/04/03 03:22:13;;;;;;;5.32;2.33;;;;;;;;;;5073387;28;20490;-79
2023/04/03 03:24:39;;;;;;;6.38;2.10;;;;;;;;;;5092181;28;20413;-79
2023/04/03 03:27:05;;;;;;;6.10;2.05;;;;;;;;;;5069895;28;20449;-80
2023/04/03 03:29:31;;;;;;;5.45;2.05;;;;;;;;;;5088023;28;20424;-79
2023/04/03 03:31:57;;;;;;;5.18;2.00;;;;;;;;;;5040792;28;20470;-80
2023/04/03 03:34:23;;;;;;;6.25;2.00;;;;;;;;;;5060725;28;20489;-79
2023/04/03 03:36:49;;;;;;;5.63;2.33;;;;;;;;;;5073599;28;20422;-79
2023/04/03 03:39:15;;;;;;;6.75;2.20;;;;;;;;;;5058548;28;20441;-78
2023/04/03 03:41:41;;;;;;;7.20;2.00;;;;;;;;;;5047048;28;20410;-77
2023/04/03 03:44:07;;;;;;;5.73;2.30;;;;;;;;;;5070019;28;20835;-78
2023/04/03 03:46:34;;;;;;;5.15;2.00;;;;;;;;;;5085897;28;20420;-78
2023/04/03 03:49:00;;;;;;;5.83;2.20;;;;;;;;;;5064735;28;20434;-78
2023/04/03 03:51:26;;;;;;;5.97;2.15;;;;;;;;;;5074892;28;20433;-78
2023/04/03 03:53:52;;;;;;;5.85;2.67;;;;;;;;;;5073647;28;20405;-78
2023/04/03 03:56:18;;;;;;;5.93;2.28;;;;;;;;;;5054709;28;20896;-78
2023/04/03 03:58:44;;;;;;;7.50;2.53;;;;;;;;;;5063997;28;20416;-79
2023/04/03 04:01:10;;;;;;;7.53;2.63;;;;;;;;;;5096907;28;20426;-79
2023/04/03 04:03:37;;;;;;;8.57;3.93;;;;;;;;;;5075079;28;20448;-79
2023/04/03 04:06:03;;;;;;;9.88;4.40;;;;;;;;;;5068300;28;20423;-78
2023/04/03 04:08:29;;;;;;;8.63;3.23;;;;;;;;;;5066770;28;20421;-76
2023/04/03 04:10:55;;;;;;;5.20;2.60;;;;;;;;;;5090145;28;20862;-78
2023/04/03 04:13:21;;;;;;;8.05;2.70;;;;;;;;;;5087630;28;20426;-79
2023/04/03 04:15:47;;;;;;;6.40;2.67;;;;;;;;;;5072914;28;20418;-78
2023/04/03 04:18:13;;;;;;;9.03;2.57;;;;;;;;;;5083935;28;20924;-78
2023/04/03 04:20:39;;;;;;;7.72;2.65;;;;;;;;;;5085803;28;20500;-80
2023/04/03 04:23:06;;;;;;;7.40;2.60;;;;;;;;;;5043762;28;20440;-80
2023/04/03 04:25:32;;;;;;;7.45;2.63;;;;;;;;;;5075775;28;20520;-81
2023/04/03 04:27:58;;;;;;;7.82;2.88;;;;;;;;;;5051412;28;20425;-81
2023/04/03 04:30:24;;;;;;;5.65;2.47;;;;;;;;;;5069162;28;20405;-81
2023/04/03 04:32:50;;;;;;;9.73;3.00;;;;;;;;;;5059004;28;20401;-78
2023/04/03 04:35:16;;;;;;;6.82;2.80;;;;;;;;;;5060392;28;20404;-80
2023/04/03 04:37:43;;;;;;;8.45;2.88;;;;;;;;;;5090701;28;20413;-84
2023/04/03 04:40:09;;;;;;;8.75;2.92;;;;;;;;;;5058446;28;20414;-83
2023/04/03 04:42:35;;;;;;;8.65;3.08;;;;;;;;;;5092923;28;20431;-83
2023/04/03 04:45:01;;;;;;;7.65;2.80;;;;;;;;;;5076352;28;20412;-83
2023/04/03 04:47:30;;;;;;;8.90;3.05;;;;;;;;;;5093247;28;20398;-82
2023/04/03 04:49:56;;;;;;;10.18;3.45;;;;;;;;;;5088285;28;20420;-83
2023/04/03 04:52:22;;;;;;;9.43;3.00;;;;;;;;;;5057979;28;20447;-82
2023/04/03 04:54:48;;;;;;;8.80;3.20;;;;;;;;;;5039969;28;20424;-83
2023/04/03 04:57:14;;;;;;;8.32;3.03;;;;;;;;;;5066731;28;20413;-82
2023/04/03 04:59:40;;;;;;;9.73;3.30;;;;;;;;;;5090866;28;20418;-83
2023/04/03 05:02:06;;;;;;;7.80;3.47;;;;;;;;;;5075378;28;20398;-84
2023/04/03 05:04:33;;;;;;;8.38;3.28;;;;;;;;;;5041322;28;20433;-83
2023/04/03 05:06:59;;;;;;;7.22;3.40;;;;;;;;;;5074435;28;20747;-83
2023/04/03 05:09:25;;;;;;;11.90;3.65;;;;;;;;;;5075559;28;20444;-84
2023/04/03 05:11:51;;;;;;;10.80;3.72;;;;;;;;;;5075161;28;20474;-84
2023/04/03 05:14:17;;;;;;;7.55;4.05;;;;;;;;;;5087227;28;20752;-84
2023/04/03 05:16:43;;;;;;;10.87;3.87;;;;;;;;;;5071816;28;20401;-83
2023/04/03 05:19:10;;;;;;;8.57;3.97;;;;;;;;;;5058490;28;20496;-83
2023/04/03 05:21:36;;;;;;;12.45;4.80;;;;;;;;;;5059106;28;20448;-83
2023/04/03 05:24:03;;;;;;;11.10;3.88;;;;;;;;;;5057688;28;20405;-84
2023/04/03 05:26:30;;;;;;;9.30;3.75;;;;;;;;;;5081224;28;20432;-84
2023/04/03 05:28:56;;;;;;;8.25;3.38;;;;;;;;;;5077018;28;20984;-84
2023/04/03 05:31:23;;;;;;;7.13;3.20;;;;;;;;;;5076918;28;20406;-85
2023/04/03 05:33:49;;;;;;;8.18;3.08;;;;;;;;;;5041393;28;20409;-86
2023/04/03 05:36:15;;;;;;;8.65;3.47;;;;;;;;;;5088114;28;20403;-85
2023/04/03 05:38:41;;;;;;;8.73;3.50;;;;;;;;;;5062646;28;20492;-78
2023/04/03 05:41:08;;;;;;;9.63;3.38;;;;;;;;;;5035528;28;21115;-78
2023/04/03 05:43:37;;;;;;;8.30;3.70;;;;;;;;;;5065805;28;20418;-77
2023/04/03 05:46:03;;;;;;;10.73;3.80;;;;;;;;;;5056589;28;20448;-77
2023/04/03 05:48:30;;;;;;;7.93;3.30;;;;;;;;;;5071988;28;20413;-77
2023/04/03 05:50:56;;;;;;;9.63;3.13;;;;;;;;;;5093212;28;22586;-78
2023/04/03 05:53:25;;;;;;;6.05;2.92;;;;;;;;;;5060990;28;20443;-77
2023/04/03 05:55:51;;;;;;;9.82;4.10;;;;;;;;;;5072589;28;20536;-79
2023/04/03 05:58:17;;;;;;;6.53;3.23;;;;;;;;;;5046464;28;20423;-85
2023/04/03 06:00:43;;;;;;;8.32;3.30;;;;;;;;;;5074242;28;20425;-78
2023/04/03 06:03:09;;;;;;;6.43;3.13;;;;;;;;;;5059010;28;20429;-78
2023/04/03 06:05:36;;;;;;;9.43;3.10;;;;;;;;;;5094899;28;20509;-78
2023/04/03 06:08:02;;;;;;;6.13;3.08;;;;;;;;;;5077867;28;20400;-77
2023/04/03 06:10:29;;;;;;;6.57;3.23;;;;;;;;;;5063808;28;20486;-77
2023/04/03 06:12:55;;;;;;;10.00;3.85;;;;;;;;;;5071818;28;20436;-77
2023/04/03 06:15:21;;;;;;;9.77;3.50;;;;;;;;;;5051236;28;20439;-78
2023/04/03 06:17:48;;;;;;;7.53;3.72;;;;;;;;;;5053272;28;20421;-78
2023/04/03 06:20:14;;;;;;;7.47;3.40;;;;;;;;;;5043678;28;20425;-78
2023/04/03 06:22:41;;;;;;;8.90;3.50;;;;;;;;;;5055464;28;20411;-79
2023/04/03 06:25:08;;;;;;;8.33;3.77;;;;;;;;;;5046591;28;20425;-77
2023/04/03 06:27:34;;;;;;;11.13;4.00;;;;;;;;;;5095043;28;20479;-78
2023/04/03 06:30:00;;;;;;;7.05;3.50;;;;;;;;;;5080611;28;20515;-82
2023/04/03 06:32:26;;;;;;;8.43;3.67;;;;;;;;;;5057095;28;20411;-82
2023/04/03 06:34:53;;;;;;;9.77;3.75;;;;;;;;;;5073862;28;20752;-77
2023/04/03 06:37:21;;;;;;;6.88;3.42;;;;;;;;;;5036659;28;20440;-77
2023/04/03 06:39:47;;;;;;;9.32;3.70;;;;;;;;;;5069864;28;20434;-77
2023/04/03 06:42:13;;;;;;;8.50;3.53;;;;;;;;;;5073545;28;20415;-77
2023/04/03 06:44:40;;;;;;;7.88;3.53;;;;;;;;;;5066703;28;20466;-77
2023/04/03 06:47:06;;;;;;;8.77;3.75;;;;;;;;;;5073809;28;20424;-76
2023/04/03 06:49:32;;;;;;;7.90;3.55;;;;;;;;;;5073321;28;20465;-76
2023/04/03 06:51:58;;;;;;;8.90;3.80;;;;;;;;;;5057896;28;20423;-76
2023/04/03 06:54:24;;;;;;;8.18;3.50;;;;;;;;;;5070768;28;20492;-76
2023/04/03 06:56:51;;;;;;;8.30;3.30;;;;;;;;;;5076269;28;20547;-76
2023/04/03 06:59:17;;;;;;;7.75;3.05;;;;;;;;;;5046379;28;20470;-76
2023/04/03 07:01:44;;;;;;;9.35;3.33;;;;;;;;;;5068587;28;20431;-77
2023/04/03 07:04:10;;;;;;;8.53;3.27;;;;;;;;;;5060827;28;20909;-77
2023/04/03 07:06:36;;;;;;;8.18;3.35;;;;;;;;;;5049248;28;20424;-77
2023/04/03 07:09:03;;;;;;;8.63;3.47;;;;;;;;;;5054232;28;20473;-77
2023/04/03 07:11:29;;;;;;;7.57;2.73;;;;;;;;;;5055645;28;20426;-78
2023/04/03 07:13:56;;;;;;;7.22;2.58;;;;;;;;;;5037985;28;20818;-77
2023/04/03 07:16:22;;;;;;;7.20;2.93;;;;;;;;;;5056568;28;20413;-77
2023/04/03 07:18:48;;;;;;;5.57;2.53;;;;;;;;;;5067770;28;20713;-77
2023/04/03 07:21:14;;;;;;;9.17;2.90;;;;;;;;;;5081049;28;20494;-78
2023/04/03 07:23:40;;;;;;;7.60;2.97;;;;;;;;;;5068243;28;20774;-78
2023/04/03 07:26:07;;;;;;;7.45;3.65;;;;;;;;;;5052384;28;20423;-78
2023/04/03 07:28:34;;;;;;;8.40;3.00;;;;;;;;;;5090041;28;20413;-77
2023/04/03 07:31:05;;;;;;;8.23;3.15;;;;;;;;;;5069006;28;20414;-78
2023/04/03 07:33:31;;;;;;;8.10;2.97;;;;;;;;;;5062812;28;20408;-79
2023/04/03 07:35:58;;;;;;;6.57;2.45;;;;;;;;;;5089805;28;20432;-80
2023/04/03 07:38:24;;;;;;;6.53;2.60;;;;;;;;;;5050173;28;20430;-80
2023/04/03 07:40:52;;;;;;;7.80;2.30;;;;;;;;;;5071849;28;20887;-79
2023/04/03 07:43:19;;;;;;;7.45;2.50;;;;;;;;;;5055710;28;20455;-80
2023/04/03 07:45:49;;;;;;;5.28;2.13;;;;;;;;;;5071419;28;20455;-79
2023/04/03 07:48:16;;;;;;;5.57;2.00;;;;;;;;;;5056151;28;20430;-79
2023/04/03 07:50:42;;;;;;;6.72;2.40;;;;;;;;;;5072678;28;20848;-79
2023/04/03 07:53:08;;;;;;;6.55;2.28;;;;;;;;;;5068266;28;20451;-79
2023/04/03 07:55:40;;;;;;;5.97;2.08;;;;;;;;;;5071215;28;20495;-78
2023/04/03 07:58:06;;;;;;;4.88;2.00;;;;;;;;;;5048477;28;20882;-80
2023/04/03 08:00:32;;;;;;;4.63;1.85;;;;;;;;;;5075475;28;20427;-80
2023/04/03 08:02:58;;;;;;;4.50;1.95;;;;;;;;;;5072185;28;20447;-78
2023/04/03 08:05:25;;;;;;;7.10;2.10;;;;;;;;;;5071913;28;20426;-78
2023/04/03 08:07:53;;;;;;;4.30;1.90;;;;;;;;;;5088047;28;20515;-79
2023/04/03 08:10:19;;;;;;;5.35;1.67;;;;;;;;;;5052835;28;20839;-79
2023/04/03 08:12:48;;;;;;;6.00;2.17;;;;;;;;;;5059265;28;20478;-78
2023/04/03 08:15:14;;;;;;;5.18;1.80;;;;;;;;;;5065624;28;20420;-79
2023/04/03 08:17:40;;;;;;;6.07;2.10;;;;;;;;;;5059636;28;20463;-78
2023/04/03 08:20:07;;;;;;;4.97;1.70;;;;;;;;;;5065687;28;20424;-77
2023/04/03 08:22:34;;;;;;;5.03;1.63;;;;;;;;;;5074704;28;20785;-78
2023/04/03 08:25:01;;;;;;;5.85;1.98;;;;;;;;;;5046829;28;21514;-77
2023/04/03 08:27:28;;;;;;;4.87;2.10;;;;;;;;;;5064477;28;20771;-79
2023/04/03 08:29:54;;;;;;;4.28;1.63;;;;;;;;;;5047030;28;20479;-77
2023/04/03 08:32:20;;;;;;;3.85;1.80;;;;;;;;;;5037858;28;20444;-78
2023/04/03 08:34:46;;;;;;;6.70;2.20;;;;;;;;;;5033510;28;20770;-78
2023/04/03 08:37:13;;;;;;;5.88;1.70;;;;;;;;;;5050726;28;20397;-78
2023/04/03 08:39:39;;;;;;;4.67;1.93;;;;;;;;;;5057656;28;20473;-77
2023/04/03 08:42:28;;;;;;;5.78;2.08;;;;;;;;;;5061377;28;20420;-78
2023/04/03 08:45:15;;;;;;;3.50;1.60;;;;;;;;;;5046005;28;20425;-77
2023/04/03 08:47:43;;;;;;;6.53;2.00;;;;;;;;;;5042070;28;20477;-78
2023/04/03 08:50:15;;;;;;;5.20;1.58;;;;;;;;;;5056193;28;20424;-78
2023/04/03 08:52:43;;;;;;;4.85;1.65;;;;;;;;;;5059933;28;20470;-79
2023/04/03 08:55:15;;;;;;;5.00;1.60;;;;;;;;;;5065204;28;20826;-78
2023/04/03 08:57:44;;;;;;;5.40;1.70;;;;;;;;;;5060973;28;20465;-78
2023/04/03 09:00:21;;;;;;;5.10;1.55;;;;;;;;;;5068756;28;20771;-78
2023/04/03 09:02:51;;;;;;;3.97;1.50;;;;;;;;;;5065770;28;20424;-78
2023/04/03 09:05:37;;;;;;;4.68;1.70;;;;;;;;;;5085991;28;20416;-78
2023/04/03 09:08:06;;;;;;;3.67;1.50;;;;;;;;;;5068015;28;20499;-78
2023/04/03 09:10:33;;;;;;;4.80;1.50;;;;;;;;;;5051954;28;20424;-78
2023/04/03 09:13:10;;;;;;;4.95;1.65;;;;;;;;;;5063117;28;20808;-78
2023/04/03 09:15:37;;;;;;;4.72;1.58;;;;;;;;;;5082563;28;20536;-78
2023/04/03 09:18:08;;;;;;;4.97;1.50;;;;;;;;;;5048670;28;20475;-78
2023/04/03 09:20:43;;;;;;;3.22;1.30;;;;;;;;;;5047248;28;20450;-78
2023/04/03 09:23:18;;;;;;;3.47;1.50;;;;;;;;;;5079260;28;20847;-78
2023/04/03 09:25:45;;;;;;;3.85;1.40;;;;;;;;;;5057008;28;20454;-79
2023/04/03 09:28:11;;;;;;;4.47;1.40;;;;;;;;;;5071982;28;20475;-78
2023/04/03 09:30:38;;;;;;;3.95;1.50;;;;;;;;;;5057023;28;20988;-78
2023/04/03 09:33:05;;;;;;;5.45;1.67;;;;;;;;;;5066721;28;20538;-79
2023/04/03 09:35:32;;;;;;;4.82;1.40;;;;;;;;;;5065971;28;20423;-78
2023/04/03 09:38:00;;;;;;;2.65;1.25;;;;;;;;;;5054519;28;20411;-79
2023/04/03 09:40:26;;;;;;;3.35;1.50;;;;;;;;;;5069238;28;20420;-79
2023/04/03 09:42:53;;;;;;;2.75;1.38;;;;;;;;;;5068476;28;20423;-79
2023/04/03 09:45:23;;;;;;;4.05;1.33;;;;;;;;;;5054872;28;20833;-79
2023/04/03 09:48:04;;;;;;;2.83;1.30;;;;;;;;;;5049221;28;20536;-79
2023/04/03 09:50:31;;;;;;;3.20;1.30;;;;;;;;;;5050589;28;20423;-78
2023/04/03 09:52:57;;;;;;;3.15;1.17;;;;;;;;;;5072606;28;20553;-78
2023/04/03 09:55:29;;;;;;;4.05;1.20;;;;;;;;;;5051284;28;20916;-78
2023/04/03 09:57:59;;;;;;;2.90;1.30;;;;;;;;;;5070936;28;20427;-79
2023/04/03 10:00:27;;;;;;;4.07;1.40;;;;;;;;;;5069244;28;20419;-79
2023/04/03 10:02:56;;;;;;;2.40;1.10;;;;;;;;;;5062703;28;20404;-79
2023/04/03 10:05:29;;;;;;;2.95;1.10;;;;;;;;;;5046897;28;20431;-79
2023/04/03 10:08:07;;;;;;;2.70;1.20;;;;;;;;;;5069689;28;20894;-78
2023/04/03 10:10:33;;;;;;;2.63;0.88;;;;;;;;;;5045996;28;20411;-79
2023/04/03 10:13:26;;;;;;;1.58;0.85;;;;;;;;;;5054079;28;20415;-77
2023/04/03 10:15:56;;;;;;;2.97;1.02;;;;;;;;;;5066954;28;20423;-78
2023/04/03 10:18:44;;;;;;;2.38;0.90;;;8.40;99.90;;;;;;5067856;28;20422;-77
2023/04/03 10:21:17;;;;;;;3.38;1.20;;;;;;;;;;5051578;28;20473;-79
2023/04/03 10:23:46;;;;;;;2.95;0.98;;;;;;;;;;5071057;28;20481;-79
2023/04/03 10:26:33;;;;;;;2.87;1.10;;;;;;;;;;5053211;28;22123;-79
2023/04/03 10:29:16;;;;;;;4.05;1.23;;;;;;;;;;5059687;28;20416;-79
2023/04/03 10:32:00;;;;;;;1.77;0.85;;;;;;;;;;5067556;28;20424;-78
2023/04/03 10:34:32;;;;;;;1.92;0.95;;;8.10;99.90;;;;;;5066508;28;20428;-78
2023/04/03 10:37:05;;;;;;;3.00;1.20;;;;;;;;;;5063492;28;20419;-77
2023/04/03 10:39:31;;;;;;;2.73;0.90;;;;;;;;;;5066485;28;20515;-78
2023/04/03 10:42:09;;;;;;;3.30;1.10;;;;;;;;;;5064174;28;20424;-78
2023/04/03 10:44:35;;;;;;;2.53;1.10;;;;;;;;;;5071496;28;20423;-78
2023/04/03 10:47:04;;;;;;;2.55;1.15;;;;;;;;;;5063699;28;20419;-79
2023/04/03 10:49:33;;;;;;;2.13;0.90;;;;;;;;;;5053237;28;20422;-79
2023/04/03 10:52:08;;;;;;;2.97;1.23;;;;;;;;;;5069606;28;20836;-78
2023/04/03 10:54:39;;;;;;;2.75;1.30;;;;;;;;;;5071372;28;20884;-76
2023/04/03 10:57:06;;;;;;;5.00;1.33;;;;;;;;;;5066167;28;20427;-77
2023/04/03 10:59:36;;;;;;;2.85;1.00;;;;;;;;;;5044549;28;20855;-78
2023/04/03 11:02:16;;;;;;;3.03;1.10;;;;;;;;;;5048470;28;20425;-76
2023/04/03 11:04:44;;;;;;;3.20;1.00;;;;;;;;;;5058651;28;20427;-76
2023/04/03 11:07:19;;;;;;;3.10;1.40;;;;;;;;;;5050806;28;20428;-77
2023/04/03 11:09:47;;;;;;;2.47;0.90;;;;;;;;;;5063397;28;20495;-77
2023/04/03 11:12:23;;;;;;;1.95;0.98;;;;;;;;;;5054470;28;20428;-77
2023/04/03 11:14:51;;;;;;;2.80;1.00;;;;;;;;;;5065723;28;20465;-76
2023/04/03 11:17:23;;;;;;;3.00;1.00;;;;;;;;;;5053112;28;20491;-76
2023/04/03 11:19:56;;;;;;;2.53;1.00;;;;;;;;;;5086422;28;20757;-77
2023/04/03 11:22:31;;;;;;;2.42;1.10;;;8.90;99.90;;;;;;5039387;28;20427;-77
2023/04/03 11:25:12;;;;;;;3.03;1.20;;;;;;;;;;5066180;28;20506;-78
2023/04/03 11:27:41;;;;;;;2.78;1.02;;;;;;;;;;5053457;28;20427;-78
2023/04/03 11:30:13;;;;;;;3.70;1.20;;;;;;;;;;5054465;28;21044;-78
2023/04/03 11:32:45;;;;;;;3.15;1.00;;;;;;;;;;5054633;28;20503;-79
2023/04/03 11:35:11;;;;;;;3.87;1.10;;;;;;;;;;5051047;28;20980;-77
2023/04/03 11:37:46;;;;;;;4.60;1.05;;;;;;;;;;5065489;28;20425;-77
2023/04/03 11:40:15;;;;;;;2.03;0.90;;;;;;;;;;5068559;28;20450;-79
2023/04/03 11:42:49;;;;;;;3.33;1.20;;;8.20;99.90;;;;;;5071896;28;20449;-78
2023/04/03 11:45:36;;;;;;;4.30;1.10;;;;;;;;;;5066548;28;20424;-79
2023/04/03 11:48:07;;;;;;;2.45;1.00;;;;;;;;;;5051996;28;20410;-81
2023/04/03 11:50:40;;;;;;;2.08;1.10;;;;;;;;;;5057454;28;20424;-79
2023/04/03 11:53:06;;;;;;;1.77;0.90;;;;;;;;;;5070864;28;20485;-78
2023/04/03 11:55:32;;;;;;;3.13;1.10;;;;;;;;;;5062223;28;20441;-80
2023/04/03 11:57:59;;;;;;;3.47;1.10;;;;;;;;;;5047600;28;20848;-80
2023/04/03 12:00:43;;;;;;;3.17;1.38;;;9.70;99.90;;;;;;5071715;28;20411;-81
2023/04/03 12:03:28;;;;;;;4.45;1.58;;;;;;;;;;5051798;28;20423;-80
2023/04/03 12:05:57;;;;;;;4.07;1.33;;;;;;;;;;5071450;28;20516;-80
2023/04/03 12:08:44;;;;;;;2.97;1.20;;;;;;;;;;5054696;28;20404;-79
2023/04/03 12:11:13;;;;;;;3.63;1.10;;;;;;;;;;5066936;28;20485;-80
2023/04/03 12:13:55;;;;;;;2.60;1.17;;;;;;;;;;5053213;28;20434;-80
2023/04/03 12:16:28;;;;;;;3.15;1.13;;;;;;;;;;5050498;28;20426;-80
2023/04/03 12:18:58;;;;;;;2.40;1.10;;;;;;;;;;5055337;28;20428;-80
2023/04/03 12:21:24;;;;;;;3.03;1.27;;;;;;;;;;5064113;28;20427;-80
2023/04/03 12:24:02;;;;;;;3.43;1.17;;;;;;;;;;5063414;28;20454;-83
2023/04/03 12:26:51;;;;;;;3.25;1.35;;;;;;;;;;5043033;28;20423;-80
2023/04/03 12:29:20;;;;;;;3.20;1.20;;;;;;;;;;5067013;28;20463;-81
2023/04/03 12:32:07;;;;;;;3.28;1.30;;;;;;;;;;5048375;28;20476;-79
2023/04/03 12:34:36;;;;;;;2.87;1.23;;;;;;;;;;5063249;28;21044;-80
2023/04/03 12:37:03;;;;;;;2.75;1.13;;;;;;;;;;5058673;28;20422;-80
2023/04/03 12:39:42;;;;;;;2.22;1.10;;;;;;;;;;5050440;28;20415;-79
2023/04/03 12:42:42;;;;;;;2.67;1.27;;;10.70;99.90;;;;;;5068691;28;20419;-79
2023/04/03 12:45:11;;;;;;;2.72;1.27;;;;;;;;;;5069049;28;21023;-79
2023/04/03 12:47:39;;;;;;;3.30;1.33;;;;;;;;;;5058408;28;20516;-79
2023/04/03 12:50:16;;;;;;;2.73;1.20;;;;;;;;;;5043422;28;20483;-79
2023/04/03 12:52:44;;;;;;;3.17;1.30;;;;;;;;;;5062393;28;20570;-79
2023/04/03 12:55:18;;;;;;;2.72;1.23;;;;;;;;;;5063555;28;20417;-79
2023/04/03 12:57:44;;;;;;;4.50;1.30;;;;;;;;;;5045332;28;20417;-80
2023/04/03 13:00:28;;;;;;;2.95;1.33;;;;;;;;;;5052295;28;20427;-80
2023/04/03 13:02:55;;;;;;;3.75;1.40;;;;;;;;;;5040272;28;20922;-79
2023/04/03 13:05:22;;;;;;;4.70;1.50;;;;;;;;;;5042148;28;20450;-80
2023/04/03 13:07:50;;;;;;;4.03;1.67;;;;;;;;;;5061525;28;20412;-79
2023/04/03 13:10:17;;;;;;;4.78;1.90;;;;;;;;;;5059596;28;20458;-80
2023/04/03 13:12:54;;;;;;;5.68;1.50;;;;;;;;;;5047790;28;21046;-80
2023/04/03 13:15:40;;;;;;;4.15;1.30;;;10.20;99.90;;;;;;5049894;28;20514;-80
2023/04/03 13:18:06;;;;;;;4.43;1.50;;;;;;;;;;5045707;28;20520;-79
2023/04/03 13:20:35;;;;;;;3.70;1.60;;;;;;;;;;5096270;28;23021;-79
2023/04/03 13:23:06;;;;;;;8.13;1.88;;;;;;;;;;5064113;28;20519;-78
2023/04/03 13:25:36;;;;;;;3.67;1.60;;;11.50;99.90;;;;;;5042068;28;20434;-78
2023/04/03 13:28:03;;;;;;;3.00;1.27;;;;;;;;;;5063224;28;20429;-78
2023/04/03 13:30:34;;;;;;;4.28;1.30;;;;;;;;;;5060794;28;20558;-78
2023/04/03 13:33:01;;;;;;;3.25;1.40;;;;;;;;;;5093574;28;20434;-79
2023/04/03 13:35:32;;;;;;;3.72;1.70;;;;;;;;;;5063863;28;20454;-78
2023/04/03 13:38:00;;;;;;;3.78;1.52;;;;;;;;;;5043357;28;20408;-79
2023/04/03 13:40:26;;;;;;;3.60;1.45;;;;;;;;;;5046295;28;20450;-79
2023/04/03 13:42:59;;;;;;;3.00;1.20;;;;;;;;;;5061880;28;20447;-79
2023/04/03 13:45:28;;;;;;;4.28;1.58;;;;;;;;;;5050086;28;20432;-79
2023/04/03 13:48:07;;;;;;;4.27;1.53;;;;;;;;;;5052508;28;20506;-78
2023/04/03 13:50:34;;;;;;;2.85;1.40;;;;;;;;;;5049198;28;20560;-78
2023/04/03 13:53:02;;;;;;;3.42;1.40;;;;;;;;;;5037263;28;20454;-78
2023/04/03 13:55:30;;;;;;;3.42;1.40;;;9.40;99.90;;;;;;5094797;28;20424;-78
2023/04/03 13:57:59;;;;;;;2.60;1.30;;;;;;;;;;5050874;28;20447;-79
2023/04/03 14:00:48;;;;;;;2.78;1.38;;;9.50;99.90;;;;;;5047155;28;20423;-79
2023/04/03 14:03:19;;;;;;;2.53;1.35;;;;;;;;;;5042405;28;20504;-79
2023/04/03 14:05:45;;;;;;;3.47;1.40;;;;;;;;;;5066621;28;20864;-79
2023/04/03 14:08:11;;;;;;;3.20;1.55;;;;;;;;;;5047936;28;20428;-79
2023/04/03 14:10:38;;;;;;;3.67;1.40;;;;;;;;;;5055299;28;20919;-80
2023/04/03 14:13:04;;;;;;;2.97;1.30;;;;;;;;;;5056802;28;20404;-79
2023/04/03 14:15:31;;;;;;;3.65;1.38;;;10.10;99.90;;;;;;5047493;28;20415;-78
2023/04/03 14:17:57;;;;;;;3.40;1.40;;;;;;;;;;5084280;28;20422;-79
2023/04/03 14:20:25;;;;;;;2.97;1.30;;;;;;;;;;5060197;28;20788;-79
2023/04/03 14:22:51;;;;;;;3.60;1.30;;;;;;;;;;5079246;28;20424;-80
2023/04/03 14:25:18;;;;;;;3.35;1.40;;;;;;;;;;5066189;28;20511;-80
2023/04/03 14:27:46;;;;;;;3.70;1.55;;;;;;;;;;5047052;28;20504;-80
2023/04/03 14:30:17;;;;;;;2.78;1.17;;;;;;;;;;5051253;28;20483;-80
2023/04/03 14:32:43;;;;;;;4.17;1.40;;;;;;;;;;5039253;28;20925;-79
2023/04/03 14:35:09;;;;;;;2.60;1.30;;;;;;;;;;5067937;28;20472;-80
2023/04/03 14:37:36;;;;;;;3.75;1.40;;;;;;;;;;5061003;28;20463;-79
2023/04/03 14:40:03;;;;;;;3.78;1.35;;;;;;;;;;5096215;28;20419;-80
2023/04/03 14:42:31;;;;;;;3.85;1.38;;;;;;;;;;5064567;28;20943;-78
2023/04/03 14:44:58;;;;;;;3.10;1.35;;;;;;;;;;5062316;28;20434;-78
2023/04/03 14:47:26;;;;;;;3.40;1.45;;;;;;;;;;5064684;28;20419;-78